createdAt,value
2017-11-25T08:27:22.952Z,90.70
2017-11-25T08:29:54.855Z,90.90
2017-11-25T08:32:26.734Z,91.10
2017-11-25T08:34:58.634Z,91.40
2017-11-25T08:37:30.513Z,91.30
2017-11-25T08:40:02.413Z,91.40
2017-11-25T08:42:34.297Z,91.40
2017-11-25T08:45:07.204Z,91.60
2017-11-25T08:47:39.093Z,91.60
2017-11-25T08:50:11.044Z,91.50
2017-11-25T08:52:42.929Z,91.30
2017-11-25T08:55:14.842Z,91.50
2017-11-25T08:57:46.735Z,92.00
2017-11-25T09:00:18.696Z,91.60
2017-11-25T09:02:50.585Z,91.20
2017-11-25T09:05:22.494Z,91.50
2017-11-25T09:07:54.389Z,91.20
2017-11-25T09:10:26.301Z,91.00
2017-11-25T09:12:58.189Z,91.00
2017-11-25T09:15:30.088Z,91.90
2017-11-25T09:18:01.970Z,90.60
2017-11-25T09:20:34.631Z,91.10
2017-11-25T09:23:06.513Z,91.00
2017-11-25T09:25:39.178Z,90.40
2017-11-25T09:28:11.832Z,90.80
2017-11-25T09:30:43.730Z,90.80
2017-11-25T09:33:16.382Z,90.80
2017-11-25T09:35:48.291Z,90.80
2017-11-25T09:38:20.173Z,91.00
2017-11-25T09:40:52.085Z,91.50
2017-11-25T09:43:24.729Z,91.10
2017-11-25T09:45:56.638Z,91.10
2017-11-25T09:48:28.519Z,90.60
2017-11-25T09:51:00.443Z,91.10
2017-11-25T09:53:33.092Z,91.00
2017-11-25T09:56:04.989Z,91.00
2017-11-25T09:58:36.864Z,90.90
2017-11-25T10:01:08.781Z,90.90
2017-11-25T10:03:40.665Z,90.90
2017-11-25T10:06:13.361Z,90.40
2017-11-25T10:08:45.233Z,90.40
2017-11-25T10:11:17.149Z,90.20
2017-11-25T10:13:49.039Z,90.20
2017-11-25T10:16:20.948Z,89.60
2017-11-25T10:18:52.825Z,90.00
2017-11-25T10:21:24.716Z,90.40
2017-11-25T10:23:56.592Z,90.00
2017-11-25T10:26:28.509Z,90.30
2017-11-25T10:29:01.175Z,89.00
2017-11-25T10:31:33.098Z,88.90
2017-11-25T10:34:04.978Z,89.40
2017-11-25T10:36:36.975Z,90.00
2017-11-25T10:39:08.885Z,88.90
2017-11-25T10:41:40.801Z,88.60
2017-11-25T10:44:13.440Z,88.80
2017-11-25T10:46:45.353Z,88.80
2017-11-25T10:49:18.006Z,89.00
2017-11-25T10:51:49.913Z,88.80
2017-11-25T10:54:21.792Z,87.70
2017-11-25T10:56:54.492Z,87.40
2017-11-25T10:59:26.372Z,87.40
2017-11-25T11:01:58.261Z,88.10
2017-11-25T11:04:30.145Z,88.50
2017-11-25T11:07:02.066Z,86.50
2017-11-25T11:09:34.709Z,87.20
2017-11-25T11:12:06.613Z,87.10
2017-11-25T11:14:39.261Z,86.70
2017-11-25T11:17:11.173Z,86.70
2017-11-25T11:19:43.061Z,86.70
2017-11-25T11:22:14.971Z,88.60
2017-11-25T11:24:47.621Z,87.70
2017-11-25T11:27:19.520Z,87.60
2017-11-25T11:29:51.392Z,87.70
2017-11-25T11:32:23.556Z,85.80
2017-11-25T11:34:55.429Z,86.30
2017-11-25T11:37:27.336Z,86.20
2017-11-25T11:39:59.212Z,85.90
2017-11-25T11:42:31.996Z,86.30
2017-11-25T11:45:03.895Z,86.30
2017-11-25T11:47:35.802Z,87.00
2017-11-25T11:50:07.672Z,87.00
2017-11-25T11:52:40.346Z,86.20
2017-11-25T11:55:12.988Z,84.70
2017-11-25T11:57:44.892Z,84.60
2017-11-25T12:00:17.537Z,85.80
2017-11-25T12:02:49.458Z,85.80
2017-11-25T12:05:21.341Z,86.50
2017-11-25T12:07:53.249Z,87.20
2017-11-25T12:10:25.894Z,88.60
2017-11-25T12:12:57.807Z,88.50
2017-11-25T12:15:29.686Z,87.80
2017-11-25T12:18:01.593Z,87.00
2017-11-25T12:20:33.479Z,85.40
2017-11-25T12:23:06.220Z,86.30
2017-11-25T12:25:38.108Z,86.40
2017-11-25T12:28:10.786Z,85.00
2017-11-25T12:30:43.437Z,85.40
2017-11-25T12:33:15.364Z,85.40
2017-11-25T12:35:47.249Z,85.60
2017-11-25T12:38:19.141Z,85.40
2017-11-25T12:40:51.803Z,87.30
2017-11-25T12:43:23.697Z,87.20
2017-11-25T12:45:55.585Z,86.00
2017-11-25T12:48:27.497Z,86.50
2017-11-25T12:50:59.384Z,86.40
2017-11-25T12:53:31.302Z,85.70
2017-11-25T12:56:03.178Z,86.00
2017-11-25T12:58:35.069Z,85.30
2017-11-25T13:01:06.944Z,86.10
2017-11-25T13:03:38.852Z,85.90
2017-11-25T13:06:10.738Z,86.40
2017-11-25T13:08:43.425Z,84.70
2017-11-25T13:11:15.305Z,84.60
2017-11-25T13:13:47.217Z,85.80
2017-11-25T13:16:19.100Z,85.90
2017-11-25T13:18:51.004Z,85.80
2017-11-25T13:21:22.881Z,85.10
2017-11-25T13:23:54.790Z,85.40
2017-11-25T13:26:26.681Z,84.20
2017-11-25T13:28:58.577Z,85.00
2017-11-25T13:31:30.471Z,84.30
2017-11-25T13:34:02.390Z,83.90
2017-11-25T13:36:34.501Z,84.40
2017-11-25T13:39:06.411Z,84.60
2017-11-25T13:41:38.279Z,84.20
2017-11-25T13:44:10.197Z,84.20
2017-11-25T13:46:42.077Z,85.90
2017-11-25T13:49:13.994Z,86.00
2017-11-25T13:51:46.645Z,86.00
2017-11-25T13:54:18.534Z,86.00
2017-11-25T13:56:51.176Z,85.80
2017-11-25T13:59:23.078Z,85.70
2017-11-25T14:01:54.954Z,85.60
2017-11-25T14:04:27.110Z,85.30
2017-11-25T14:06:58.981Z,85.50
2017-11-25T14:09:30.917Z,85.30
2017-11-25T14:12:03.569Z,85.60
2017-11-25T14:14:35.503Z,85.50
2017-11-25T14:17:07.373Z,86.20
2017-11-25T14:19:39.273Z,86.30
2017-11-25T14:22:11.924Z,87.20
2017-11-25T14:24:43.816Z,87.20
2017-11-25T14:27:16.459Z,87.10
2017-11-25T14:29:48.369Z,87.10
2017-11-25T14:32:20.254Z,87.80
2017-11-25T14:34:52.169Z,87.50
2017-11-25T14:37:24.826Z,86.60
2017-11-25T14:39:56.731Z,86.60
2017-11-25T14:42:28.896Z,87.20
2017-11-25T14:45:00.804Z,88.20
2017-11-25T14:47:32.700Z,87.80
2017-11-25T14:50:05.386Z,88.80
2017-11-25T14:52:37.265Z,88.80
2017-11-25T14:55:09.221Z,89.10
2017-11-25T14:57:41.102Z,89.40
2017-11-25T15:00:13.014Z,89.20
2017-11-25T15:02:44.917Z,89.20
2017-11-25T15:05:16.821Z,89.70
2017-11-25T15:07:48.697Z,89.90
2017-11-25T15:10:21.369Z,90.20
2017-11-25T15:12:54.012Z,90.50
2017-11-25T15:15:25.937Z,90.40
2017-11-25T15:17:57.830Z,90.20
2017-11-25T15:20:29.965Z,90.60
2017-11-25T15:23:01.859Z,90.60
2017-11-25T15:25:33.803Z,90.60
2017-11-25T15:28:05.694Z,90.60
2017-11-25T15:30:37.613Z,90.60
2017-11-25T15:33:09.488Z,90.60
2017-11-25T15:35:41.404Z,90.80
2017-11-25T15:38:14.051Z,91.30
2017-11-25T15:40:45.969Z,91.30
2017-11-25T15:43:17.849Z,91.00
2017-11-25T15:45:49.746Z,90.90
2017-11-25T15:48:21.624Z,91.00
2017-11-25T15:50:54.293Z,91.10
2017-11-25T15:53:26.174Z,91.10
2017-11-25T15:55:58.853Z,91.30
2017-11-25T15:58:30.738Z,91.30
2017-11-25T16:01:02.648Z,91.40
2017-11-25T16:03:34.533Z,91.60
2017-11-25T16:06:07.212Z,91.60
2017-11-25T16:08:39.857Z,91.60
2017-11-25T16:11:11.769Z,91.60
2017-11-25T16:13:43.876Z,91.50
2017-11-25T16:16:15.776Z,91.40
2017-11-25T16:18:47.666Z,91.60
2017-11-25T16:21:19.712Z,91.80
2017-11-25T16:23:53.473Z,91.80
2017-11-25T16:26:25.436Z,91.80
2017-11-25T16:28:57.569Z,91.90
2017-11-25T16:31:29.497Z,91.90
2017-11-25T16:34:01.371Z,91.90
2017-11-25T16:36:34.849Z,92.00
2017-11-25T16:39:07.501Z,92.10
2017-11-25T16:41:39.397Z,92.10
2017-11-25T16:44:11.281Z,92.00
2017-11-25T16:46:44.208Z,92.20
2017-11-25T16:49:16.088Z,92.30
2017-11-25T16:51:48.752Z,90.20
2017-11-25T16:54:20.648Z,90.10
2017-11-25T16:56:52.562Z,88.00
2017-11-25T16:59:24.451Z,89.20
2017-11-25T17:01:57.109Z,90.90
2017-11-25T17:04:28.988Z,90.90
2017-11-25T17:07:01.673Z,90.90
2017-11-25T17:09:33.575Z,90.90
2017-11-25T17:12:05.477Z,91.20
2017-11-25T17:14:38.130Z,91.70
2017-11-25T17:17:10.045Z,91.70
2017-11-25T17:19:41.934Z,92.10
2017-11-25T17:22:13.836Z,92.00
2017-11-25T17:24:45.713Z,92.20
2017-11-25T17:27:18.393Z,92.30
2017-11-25T17:29:50.268Z,92.20
2017-11-25T17:32:22.164Z,92.30
2017-11-25T17:34:54.048Z,92.30
2017-11-25T17:37:25.962Z,92.30
2017-11-25T17:39:57.837Z,92.10
2017-11-25T17:42:29.736Z,92.30
2017-11-25T17:45:02.389Z,92.60
2017-11-25T17:47:34.304Z,92.30
2017-11-25T17:50:06.186Z,92.20
2017-11-25T17:52:38.088Z,92.20
2017-11-25T17:55:09.964Z,92.40
2017-11-25T17:57:42.624Z,92.30
2017-11-25T18:00:14.501Z,92.30
2017-11-25T18:02:47.173Z,92.30
2017-11-25T18:05:20.820Z,92.20
2017-11-25T18:07:52.733Z,91.90
2017-11-25T18:10:25.385Z,92.40
2017-11-25T18:13:00.086Z,92.10
2017-11-25T18:15:31.952Z,92.00
2017-11-25T18:18:03.885Z,92.40
2017-11-25T18:20:35.761Z,92.00
2017-11-25T18:23:07.660Z,92.10
2017-11-25T18:25:40.325Z,92.20
2017-11-25T18:28:12.242Z,92.20
2017-11-25T18:30:44.111Z,92.40
2017-11-25T18:33:16.018Z,92.20
2017-11-25T18:35:47.897Z,92.50
2017-11-25T18:38:20.576Z,92.20
2017-11-25T18:40:53.234Z,92.00
2017-11-25T18:43:25.116Z,92.20
2017-11-25T18:45:57.761Z,92.20
2017-11-25T18:48:29.676Z,92.10
2017-11-25T18:51:01.548Z,92.40
2017-11-25T18:53:33.453Z,92.40
2017-11-25T18:56:05.342Z,92.10
2017-11-25T18:58:38.013Z,92.10
2017-11-25T19:01:09.889Z,92.10
2017-11-25T19:03:42.548Z,92.20
2017-11-25T19:06:15.212Z,92.30
2017-11-25T19:08:47.123Z,92.20
2017-11-25T19:11:18.992Z,92.40
2017-11-25T19:13:50.888Z,92.10
2017-11-25T19:16:22.773Z,92.50
2017-11-25T19:18:54.676Z,92.30
2017-11-25T19:21:26.564Z,92.60
2017-11-25T19:23:58.464Z,92.50
2017-11-25T19:26:31.105Z,92.60
2017-11-25T19:29:03.008Z,92.50
2017-11-25T19:31:35.644Z,92.50
2017-11-25T19:34:07.540Z,92.40
2017-11-25T19:36:40.185Z,92.50
2017-11-25T19:39:12.102Z,92.50
2017-11-25T19:41:43.979Z,92.50
2017-11-25T19:44:15.885Z,92.50
2017-11-25T19:46:47.768Z,92.40
2017-11-25T19:49:20.436Z,92.70
2017-11-25T19:51:53.082Z,92.70
2017-11-25T19:54:24.996Z,92.70
2017-11-25T19:56:56.874Z,92.70
2017-11-25T19:59:28.778Z,92.80
2017-11-25T20:02:00.729Z,92.80
2017-11-25T20:04:32.628Z,92.70
2017-11-25T20:07:05.269Z,92.70
2017-11-25T20:09:37.157Z,92.70
2017-11-25T20:12:09.798Z,92.60
2017-11-25T20:14:41.704Z,92.60
2017-11-25T20:17:14.341Z,92.60
2017-11-25T20:19:46.253Z,92.60
2017-11-25T20:22:18.135Z,92.60
2017-11-25T20:24:50.286Z,92.70
2017-11-25T20:27:22.168Z,92.60
2017-11-25T20:29:54.291Z,92.60
2017-11-25T20:32:26.924Z,92.80
2017-11-25T20:34:58.829Z,92.80
2017-11-25T20:37:30.708Z,92.90
2017-11-25T20:40:02.616Z,92.60
2017-11-25T20:42:34.489Z,92.70
2017-11-25T20:45:07.268Z,92.60
2017-11-25T20:47:39.166Z,92.80
2017-11-25T20:50:11.079Z,93.00
2017-11-25T20:52:42.944Z,92.40
2017-11-25T20:55:14.857Z,92.60
2017-11-25T20:57:46.737Z,92.70
2017-11-25T21:00:18.638Z,92.80
2017-11-25T21:02:50.509Z,92.50
2017-11-25T21:05:23.190Z,92.50
2017-11-25T21:07:55.829Z,92.60
2017-11-25T21:10:27.728Z,92.60
2017-11-25T21:13:00.369Z,92.60
2017-11-25T21:15:32.279Z,92.60
2017-11-25T21:18:04.157Z,92.50
2017-11-25T21:20:36.074Z,92.50
2017-11-25T21:23:07.986Z,92.40
2017-11-25T21:25:40.777Z,92.70
2017-11-25T21:28:12.645Z,92.30
2017-11-25T21:30:44.549Z,92.30
2017-11-25T21:33:17.190Z,92.30
2017-11-25T21:35:49.088Z,92.30
2017-11-25T21:38:21.734Z,91.60
2017-11-25T21:40:53.632Z,91.50
2017-11-25T21:43:26.280Z,91.50
2017-11-25T21:45:58.181Z,91.50
2017-11-25T21:48:30.073Z,91.50
2017-11-25T21:51:02.488Z,91.80
2017-11-25T21:53:35.129Z,91.80
2017-11-25T21:56:07.032Z,91.70
2017-11-25T21:58:39.682Z,92.20
2017-11-25T22:01:11.590Z,92.10
2017-11-25T22:03:43.470Z,91.90
2017-11-25T22:06:15.365Z,92.00
2017-11-25T22:08:48.601Z,91.90
2017-11-25T22:11:20.505Z,92.00
2017-11-25T22:13:52.426Z,92.30
2017-11-25T22:16:24.331Z,92.50
2017-11-25T22:18:56.209Z,92.30
2017-11-25T22:21:28.113Z,92.30
2017-11-25T22:23:59.986Z,92.60
2017-11-25T22:26:31.868Z,92.50
2017-11-25T22:29:03.750Z,92.50
2017-11-25T22:31:35.657Z,92.60
2017-11-25T22:34:07.524Z,92.60
2017-11-25T22:36:39.422Z,92.60
2017-11-25T22:39:11.302Z,92.70
2017-11-25T22:41:43.958Z,92.60
2017-11-25T22:44:15.829Z,92.60
2017-11-25T22:46:47.717Z,92.60
2017-11-25T22:49:20.359Z,92.40
2017-11-25T22:51:52.248Z,92.40
2017-11-25T22:54:24.888Z,92.60
2017-11-25T22:56:56.788Z,92.60
